Terminal Aerodrome Forecast
Issued by NWS Cleveland, OH

Home | Current Version | Previous Version | Text Only | Print | Product List | Glossary Off
Versions: 1 2 3 4 5 6 7 8 9 10 11 12 13 14 15 16 17 18 19 20 21 22

000
FTUS41 KCLE 252300
TAFMFD
TAF
KMFD 252328Z 2600/2624 03004KT P6SM BKN120
     FM261000 03006KT 3SM -SN OVC025
     FM261200 02008KT 1 1/2SM -SN BR OVC010
     FM262000 36009KT 5SM -SN BR OVC015=

USA.gov is the U.S. government's official web portal to all federal, state and local government web resources and services.